sensor_id;sensor_type;location;lat;lon;timestamp;P1;durP1;ratioP1;P2;durP2;ratioP2
32790;SDS011;19143;59.322;14.502;2023-06-14T00:01:16;8.73;;;4.20;;
32790;SDS011;19143;59.322;14.502;2023-06-14T00:03:46;4.30;;;4.00;;
32790;SDS011;19143;59.322;14.502;2023-06-14T00:06:14;7.00;;;4.43;;
32790;SDS011;19143;59.322;14.502;2023-06-14T00:08:41;4.60;;;4.20;;
32790;SDS011;19143;59.322;14.502;2023-06-14T00:11:08;5.27;;;4.63;;
32790;SDS011;19143;59.322;14.502;2023-06-14T00:13:35;5.93;;;4.63;;
32790;SDS011;19143;59.322;14.502;2023-06-14T00:16:01;7.13;;;4.53;;
32790;SDS011;19143;59.322;14.502;2023-06-14T00:18:28;15.13;;;4.57;;
32790;SDS011;19143;59.322;14.502;2023-06-14T00:20:57;7.73;;;5.33;;
32790;SDS011;19143;59.322;14.502;2023-06-14T00:23:24;8.27;;;5.00;;
32790;SDS011;19143;59.322;14.502;2023-06-14T00:25:50;6.10;;;5.50;;
32790;SDS011;19143;59.322;14.502;2023-06-14T00:28:17;5.90;;;5.43;;
32790;SDS011;19143;59.322;14.502;2023-06-14T00:30:43;5.83;;;5.10;;
32790;SDS011;19143;59.322;14.502;2023-06-14T00:33:11;5.87;;;4.83;;
32790;SDS011;19143;59.322;14.502;2023-06-14T00:35:39;5.97;;;5.37;;
32790;SDS011;19143;59.322;14.502;2023-06-14T00:38:06;12.73;;;5.50;;
32790;SDS011;19143;59.322;14.502;2023-06-14T00:40:34;6.47;;;5.80;;
32790;SDS011;19143;59.322;14.502;2023-06-14T00:43:01;5.93;;;5.33;;
32790;SDS011;19143;59.322;14.502;2023-06-14T00:45:27;7.43;;;5.40;;
32790;SDS011;19143;59.322;14.502;2023-06-14T00:47:56;6.17;;;5.37;;
32790;SDS011;19143;59.322;14.502;2023-06-14T00:50:25;6.93;;;5.63;;
32790;SDS011;19143;59.322;14.502;2023-06-14T00:52:52;10.20;;;5.60;;
32790;SDS011;19143;59.322;14.502;2023-06-14T00:55:20;8.30;;;5.00;;
32790;SDS011;19143;59.322;14.502;2023-06-14T00:57:47;8.17;;;6.00;;
32790;SDS011;19143;59.322;14.502;2023-06-14T01:00:14;8.23;;;5.47;;
32790;SDS011;19143;59.322;14.502;2023-06-14T01:02:41;6.73;;;5.50;;
32790;SDS011;19143;59.322;14.502;2023-06-14T01:05:08;8.53;;;5.40;;
32790;SDS011;19143;59.322;14.502;2023-06-14T01:07:40;6.07;;;5.57;;
32790;SDS011;19143;59.322;14.502;2023-06-14T01:10:14;10.23;;;5.57;;
32790;SDS011;19143;59.322;14.502;2023-06-14T01:12:48;5.73;;;5.07;;
32790;SDS011;19143;59.322;14.502;2023-06-14T01:15:17;6.17;;;5.53;;
32790;SDS011;19143;59.322;14.502;2023-06-14T01:17:44;29.27;;;5.80;;
32790;SDS011;19143;59.322;14.502;2023-06-14T01:20:18;21.20;;;5.73;;
32790;SDS011;19143;59.322;14.502;2023-06-14T01:22:51;9.10;;;5.53;;
32790;SDS011;19143;59.322;14.502;2023-06-14T01:25:18;15.53;;;5.97;;
32790;SDS011;19143;59.322;14.502;2023-06-14T01:27:48;9.10;;;5.83;;
32790;SDS011;19143;59.322;14.502;2023-06-14T01:30:16;11.37;;;5.80;;
32790;SDS011;19143;59.322;14.502;2023-06-14T01:32:43;7.23;;;5.53;;
32790;SDS011;19143;59.322;14.502;2023-06-14T01:35:10;13.23;;;5.40;;
32790;SDS011;19143;59.322;14.502;2023-06-14T01:37:37;6.53;;;5.90;;
32790;SDS011;19143;59.322;14.502;2023-06-14T01:40:06;6.80;;;6.00;;
32790;SDS011;19143;59.322;14.502;2023-06-14T01:42:34;7.87;;;6.30;;
32790;SDS011;19143;59.322;14.502;2023-06-14T01:45:02;10.37;;;6.17;;
32790;SDS011;19143;59.322;14.502;2023-06-14T01:47:28;12.67;;;6.43;;
32790;SDS011;19143;59.322;14.502;2023-06-14T01:50:03;7.93;;;5.97;;
32790;SDS011;19143;59.322;14.502;2023-06-14T01:52:30;7.47;;;6.07;;
32790;SDS011;19143;59.322;14.502;2023-06-14T01:54:57;7.97;;;6.20;;
32790;SDS011;19143;59.322;14.502;2023-06-14T01:57:28;8.23;;;6.33;;
32790;SDS011;19143;59.322;14.502;2023-06-14T01:59:55;6.33;;;5.73;;
32790;SDS011;19143;59.322;14.502;2023-06-14T02:02:22;7.53;;;6.03;;
32790;SDS011;19143;59.322;14.502;2023-06-14T02:04:48;12.90;;;6.37;;
32790;SDS011;19143;59.322;14.502;2023-06-14T02:07:15;14.67;;;7.40;;
32790;SDS011;19143;59.322;14.502;2023-06-14T02:09:41;8.43;;;5.67;;
32790;SDS011;19143;59.322;14.502;2023-06-14T02:12:08;8.30;;;6.97;;
32790;SDS011;19143;59.322;14.502;2023-06-14T02:14:37;10.57;;;7.43;;
32790;SDS011;19143;59.322;14.502;2023-06-14T02:17:04;13.80;;;8.17;;
32790;SDS011;19143;59.322;14.502;2023-06-14T02:19:31;12.50;;;7.83;;
32790;SDS011;19143;59.322;14.502;2023-06-14T02:21:58;10.87;;;7.23;;
32790;SDS011;19143;59.322;14.502;2023-06-14T02:24:24;10.80;;;7.00;;
32790;SDS011;19143;59.322;14.502;2023-06-14T02:26:52;12.33;;;7.40;;
32790;SDS011;19143;59.322;14.502;2023-06-14T02:29:32;12.07;;;7.13;;
32790;SDS011;19143;59.322;14.502;2023-06-14T02:32:00;6.97;;;6.27;;
32790;SDS011;19143;59.322;14.502;2023-06-14T02:34:26;14.10;;;6.83;;
32790;SDS011;19143;59.322;14.502;2023-06-14T02:36:53;8.43;;;6.73;;
32790;SDS011;19143;59.322;14.502;2023-06-14T02:39:20;9.13;;;7.10;;
32790;SDS011;19143;59.322;14.502;2023-06-14T02:41:48;12.67;;;7.90;;
32790;SDS011;19143;59.322;14.502;2023-06-14T02:44:14;10.07;;;6.57;;
32790;SDS011;19143;59.322;14.502;2023-06-14T02:46:42;7.47;;;6.73;;
32790;SDS011;19143;59.322;14.502;2023-06-14T02:49:10;9.17;;;7.03;;
32790;SDS011;19143;59.322;14.502;2023-06-14T02:51:37;7.93;;;7.13;;
32790;SDS011;19143;59.322;14.502;2023-06-14T02:54:03;8.77;;;7.27;;
32790;SDS011;19143;59.322;14.502;2023-06-14T02:56:30;7.77;;;7.00;;
32790;SDS011;19143;59.322;14.502;2023-06-14T02:58:56;13.53;;;7.97;;
32790;SDS011;19143;59.322;14.502;2023-06-14T03:01:24;8.67;;;7.30;;
32790;SDS011;19143;59.322;14.502;2023-06-14T03:03:58;10.27;;;7.17;;
32790;SDS011;19143;59.322;14.502;2023-06-14T03:06:26;10.13;;;7.43;;
32790;SDS011;19143;59.322;14.502;2023-06-14T03:08:55;15.53;;;7.83;;
32790;SDS011;19143;59.322;14.502;2023-06-14T03:11:24;9.07;;;7.07;;
32790;SDS011;19143;59.322;14.502;2023-06-14T03:13:50;14.97;;;7.67;;
32790;SDS011;19143;59.322;14.502;2023-06-14T03:16:17;10.00;;;7.10;;
32790;SDS011;19143;59.322;14.502;2023-06-14T03:18:44;13.10;;;7.70;;
32790;SDS011;19143;59.322;14.502;2023-06-14T03:21:11;10.17;;;7.77;;
32790;SDS011;19143;59.322;14.502;2023-06-14T03:23:39;12.13;;;7.47;;
32790;SDS011;19143;59.322;14.502;2023-06-14T03:26:07;8.77;;;7.87;;
32790;SDS011;19143;59.322;14.502;2023-06-14T03:28:33;11.53;;;7.87;;
32790;SDS011;19143;59.322;14.502;2023-06-14T03:31:00;17.23;;;7.63;;
32790;SDS011;19143;59.322;14.502;2023-06-14T03:33:26;11.40;;;7.33;;
32790;SDS011;19143;59.322;14.502;2023-06-14T03:35:53;19.43;;;6.90;;
32790;SDS011;19143;59.322;14.502;2023-06-14T03:38:21;12.07;;;7.43;;
32790;SDS011;19143;59.322;14.502;2023-06-14T03:40:49;18.20;;;8.33;;
32790;SDS011;19143;59.322;14.502;2023-06-14T03:43:16;23.23;;;8.87;;
32790;SDS011;19143;59.322;14.502;2023-06-14T03:45:42;22.27;;;8.50;;
32790;SDS011;19143;59.322;14.502;2023-06-14T03:48:09;10.73;;;7.90;;
32790;SDS011;19143;59.322;14.502;2023-06-14T03:50:35;9.93;;;8.63;;
32790;SDS011;19143;59.322;14.502;2023-06-14T03:53:03;12.47;;;9.00;;
32790;SDS011;19143;59.322;14.502;2023-06-14T03:55:29;17.53;;;9.13;;
32790;SDS011;19143;59.322;14.502;2023-06-14T03:57:59;11.53;;;9.00;;
32790;SDS011;19143;59.322;14.502;2023-06-14T04:00:26;20.90;;;8.60;;
32790;SDS011;19143;59.322;14.502;2023-06-14T04:02:52;10.57;;;8.43;;
32790;SDS011;19143;59.322;14.502;2023-06-14T04:05:19;15.87;;;9.37;;
32790;SDS011;19143;59.322;14.502;2023-06-14T04:07:46;23.30;;;9.80;;
32790;SDS011;19143;59.322;14.502;2023-06-14T04:10:13;12.13;;;9.23;;
32790;SDS011;19143;59.322;14.502;2023-06-14T04:12:41;17.23;;;9.37;;
32790;SDS011;19143;59.322;14.502;2023-06-14T04:15:10;16.40;;;9.33;;
32790;SDS011;19143;59.322;14.502;2023-06-14T04:17:37;16.07;;;9.43;;
32790;SDS011;19143;59.322;14.502;2023-06-14T04:20:04;18.67;;;10.00;;
32790;SDS011;19143;59.322;14.502;2023-06-14T04:22:34;16.77;;;10.70;;
32790;SDS011;19143;59.322;14.502;2023-06-14T04:25:01;14.00;;;10.20;;
32790;SDS011;19143;59.322;14.502;2023-06-14T04:27:28;16.17;;;10.87;;
32790;SDS011;19143;59.322;14.502;2023-06-14T04:29:59;15.57;;;11.57;;
32790;SDS011;19143;59.322;14.502;2023-06-14T04:32:29;13.10;;;11.40;;
32790;SDS011;19143;59.322;14.502;2023-06-14T04:34:58;17.13;;;10.83;;
32790;SDS011;19143;59.322;14.502;2023-06-14T04:37:27;16.83;;;10.53;;
32790;SDS011;19143;59.322;14.502;2023-06-14T04:39:55;20.37;;;12.60;;
32790;SDS011;19143;59.322;14.502;2023-06-14T04:42:22;21.83;;;11.63;;
32790;SDS011;19143;59.322;14.502;2023-06-14T04:44:50;14.97;;;11.57;;
32790;SDS011;19143;59.322;14.502;2023-06-14T04:47:20;19.00;;;11.87;;
32790;SDS011;19143;59.322;14.502;2023-06-14T04:49:48;18.43;;;12.27;;
32790;SDS011;19143;59.322;14.502;2023-06-14T04:52:16;17.13;;;12.07;;
32790;SDS011;19143;59.322;14.502;2023-06-14T04:54:46;18.07;;;13.30;;
32790;SDS011;19143;59.322;14.502;2023-06-14T04:57:12;17.73;;;13.37;;
32790;SDS011;19143;59.322;14.502;2023-06-14T04:59:42;19.07;;;16.47;;
32790;SDS011;19143;59.322;14.502;2023-06-14T05:02:09;22.90;;;17.87;;
32790;SDS011;19143;59.322;14.502;2023-06-14T05:04:36;23.80;;;18.10;;
32790;SDS011;19143;59.322;14.502;2023-06-14T05:07:09;28.63;;;19.70;;
32790;SDS011;19143;59.322;14.502;2023-06-14T05:09:36;26.03;;;19.93;;
32790;SDS011;19143;59.322;14.502;2023-06-14T05:12:03;22.70;;;19.53;;
32790;SDS011;19143;59.322;14.502;2023-06-14T05:14:30;22.10;;;19.47;;
32790;SDS011;19143;59.322;14.502;2023-06-14T05:16:56;29.13;;;19.27;;
32790;SDS011;19143;59.322;14.502;2023-06-14T05:19:23;28.83;;;18.63;;
32790;SDS011;19143;59.322;14.502;2023-06-14T05:21:50;25.37;;;17.47;;
32790;SDS011;19143;59.322;14.502;2023-06-14T05:24:18;31.13;;;15.30;;
32790;SDS011;19143;59.322;14.502;2023-06-14T05:26:45;29.73;;;15.60;;
32790;SDS011;19143;59.322;14.502;2023-06-14T05:29:12;29.70;;;14.63;;
32790;SDS011;19143;59.322;14.502;2023-06-14T05:31:38;29.83;;;14.33;;
32790;SDS011;19143;59.322;14.502;2023-06-14T05:34:05;16.90;;;12.73;;
32790;SDS011;19143;59.322;14.502;2023-06-14T05:36:32;15.83;;;12.70;;
32790;SDS011;19143;59.322;14.502;2023-06-14T05:38:58;16.57;;;11.83;;
32790;SDS011;19143;59.322;14.502;2023-06-14T05:41:29;13.80;;;11.17;;
32790;SDS011;19143;59.322;14.502;2023-06-14T05:43:55;19.33;;;12.27;;
32790;SDS011;19143;59.322;14.502;2023-06-14T05:46:22;19.33;;;11.67;;
32790;SDS011;19143;59.322;14.502;2023-06-14T05:48:50;17.50;;;11.70;;
32790;SDS011;19143;59.322;14.502;2023-06-14T05:51:17;17.90;;;10.53;;
32790;SDS011;19143;59.322;14.502;2023-06-14T05:53:47;12.07;;;10.00;;
32790;SDS011;19143;59.322;14.502;2023-06-14T05:56:13;12.70;;;9.03;;
32790;SDS011;19143;59.322;14.502;2023-06-14T05:58:41;11.87;;;8.93;;
32790;SDS011;19143;59.322;14.502;2023-06-14T06:01:08;19.80;;;9.17;;
32790;SDS011;19143;59.322;14.502;2023-06-14T06:03:34;16.57;;;9.00;;
32790;SDS011;19143;59.322;14.502;2023-06-14T06:06:01;16.77;;;9.37;;
32790;SDS011;19143;59.322;14.502;2023-06-14T06:08:28;12.37;;;8.47;;
32790;SDS011;19143;59.322;14.502;2023-06-14T06:10:55;20.37;;;8.70;;
32790;SDS011;19143;59.322;14.502;2023-06-14T06:13:21;10.80;;;7.23;;
32790;SDS011;19143;59.322;14.502;2023-06-14T06:15:56;13.40;;;7.67;;
32790;SDS011;19143;59.322;14.502;2023-06-14T06:18:23;18.63;;;7.63;;
32790;SDS011;19143;59.322;14.502;2023-06-14T06:20:49;14.43;;;7.87;;
32790;SDS011;19143;59.322;14.502;2023-06-14T06:23:16;11.97;;;7.10;;
32790;SDS011;19143;59.322;14.502;2023-06-14T06:25:43;18.37;;;6.80;;
32790;SDS011;19143;59.322;14.502;2023-06-14T06:28:09;9.37;;;6.20;;
32790;SDS011;19143;59.322;14.502;2023-06-14T06:30:36;17.83;;;6.57;;
32790;SDS011;19143;59.322;14.502;2023-06-14T06:33:04;13.47;;;6.57;;
32790;SDS011;19143;59.322;14.502;2023-06-14T06:35:31;14.07;;;6.20;;
32790;SDS011;19143;59.322;14.502;2023-06-14T06:37:58;10.37;;;6.37;;
32790;SDS011;19143;59.322;14.502;2023-06-14T06:40:25;9.50;;;5.97;;
32790;SDS011;19143;59.322;14.502;2023-06-14T06:42:51;8.00;;;6.00;;
32790;SDS011;19143;59.322;14.502;2023-06-14T06:45:18;8.87;;;6.27;;
32790;SDS011;19143;59.322;14.502;2023-06-14T06:47:45;6.93;;;6.17;;
32790;SDS011;19143;59.322;14.502;2023-06-14T06:50:17;11.10;;;5.80;;
32790;SDS011;19143;59.322;14.502;2023-06-14T06:52:44;9.17;;;5.80;;
32790;SDS011;19143;59.322;14.502;2023-06-14T06:55:11;10.68;;;5.97;;
32790;SDS011;19143;59.322;14.502;2023-06-14T06:57:38;14.57;;;5.87;;
32790;SDS011;19143;59.322;14.502;2023-06-14T07:00:05;10.52;;;5.20;;
32790;SDS011;19143;59.322;14.502;2023-06-14T07:02:34;11.85;;;6.30;;
32790;SDS011;19143;59.322;14.502;2023-06-14T07:05:00;9.48;;;5.65;;
32790;SDS011;19143;59.322;14.502;2023-06-14T07:07:28;6.18;;;5.60;;
32790;SDS011;19143;59.322;14.502;2023-06-14T07:09:55;5.70;;;5.20;;
32790;SDS011;19143;59.322;14.502;2023-06-14T07:12:22;5.38;;;4.90;;
32790;SDS011;19143;59.322;14.502;2023-06-14T07:14:49;8.73;;;7.85;;
32790;SDS011;19143;59.322;14.502;2023-06-14T07:17:15;62.35;;;12.85;;
32790;SDS011;19143;59.322;14.502;2023-06-14T07:19:42;7.85;;;7.15;;
32790;SDS011;19143;59.322;14.502;2023-06-14T07:22:08;13.02;;;7.93;;
32790;SDS011;19143;59.322;14.502;2023-06-14T07:24:43;7.53;;;6.82;;
32790;SDS011;19143;59.322;14.502;2023-06-14T07:27:09;9.23;;;6.80;;
32790;SDS011;19143;59.322;14.502;2023-06-14T07:29:36;9.00;;;7.13;;
32790;SDS011;19143;59.322;14.502;2023-06-14T07:32:03;7.30;;;6.63;;
32790;SDS011;19143;59.322;14.502;2023-06-14T07:34:30;15.80;;;5.20;;
32790;SDS011;19143;59.322;14.502;2023-06-14T07:36:56;5.43;;;5.03;;
32790;SDS011;19143;59.322;14.502;2023-06-14T07:39:23;5.10;;;4.55;;
32790;SDS011;19143;59.322;14.502;2023-06-14T07:41:51;5.13;;;4.80;;
32790;SDS011;19143;59.322;14.502;2023-06-14T07:44:18;5.30;;;4.72;;
32790;SDS011;19143;59.322;14.502;2023-06-14T07:46:44;6.72;;;4.78;;
32790;SDS011;19143;59.322;14.502;2023-06-14T07:49:14;5.20;;;4.80;;
32790;SDS011;19143;59.322;14.502;2023-06-14T07:51:41;5.85;;;5.30;;
32790;SDS011;19143;59.322;14.502;2023-06-14T07:54:08;5.55;;;5.18;;
32790;SDS011;19143;59.322;14.502;2023-06-14T07:56:34;5.35;;;4.95;;
32790;SDS011;19143;59.322;14.502;2023-06-14T07:59:03;15.32;;;4.90;;
32790;SDS011;19143;59.322;14.502;2023-06-14T08:01:31;5.07;;;4.57;;
32790;SDS011;19143;59.322;14.502;2023-06-14T08:03:58;10.77;;;5.65;;
32790;SDS011;19143;59.322;14.502;2023-06-14T08:06:25;5.55;;;5.05;;
32790;SDS011;19143;59.322;14.502;2023-06-14T08:08:51;4.50;;;4.20;;
32790;SDS011;19143;59.322;14.502;2023-06-14T08:11:18;5.15;;;4.40;;
32790;SDS011;19143;59.322;14.502;2023-06-14T08:13:44;10.02;;;4.60;;
32790;SDS011;19143;59.322;14.502;2023-06-14T08:16:12;6.50;;;4.40;;
32790;SDS011;19143;59.322;14.502;2023-06-14T08:18:39;8.07;;;4.55;;
32790;SDS011;19143;59.322;14.502;2023-06-14T08:21:06;6.95;;;4.65;;
32790;SDS011;19143;59.322;14.502;2023-06-14T08:23:32;9.95;;;5.00;;
32790;SDS011;19143;59.322;14.502;2023-06-14T08:25:59;9.60;;;4.63;;
32790;SDS011;19143;59.322;14.502;2023-06-14T08:28:26;5.40;;;4.80;;
32790;SDS011;19143;59.322;14.502;2023-06-14T08:30:53;5.60;;;5.10;;
32790;SDS011;19143;59.322;14.502;2023-06-14T08:33:21;5.65;;;5.15;;
32790;SDS011;19143;59.322;14.502;2023-06-14T08:35:47;8.35;;;5.13;;
32790;SDS011;19143;59.322;14.502;2023-06-14T08:38:14;5.10;;;4.60;;
32790;SDS011;19143;59.322;14.502;2023-06-14T08:40:41;5.07;;;4.78;;
32790;SDS011;19143;59.322;14.502;2023-06-14T08:43:08;5.70;;;5.03;;
32790;SDS011;19143;59.322;14.502;2023-06-14T08:45:35;9.38;;;4.82;;
32790;SDS011;19143;59.322;14.502;2023-06-14T08:48:01;3.97;;;3.63;;
32790;SDS011;19143;59.322;14.502;2023-06-14T08:50:30;6.93;;;3.97;;
32790;SDS011;19143;59.322;14.502;2023-06-14T08:53:00;5.13;;;4.15;;
32790;SDS011;19143;59.322;14.502;2023-06-14T08:55:27;4.30;;;4.00;;
32790;SDS011;19143;59.322;14.502;2023-06-14T08:57:56;10.18;;;4.32;;
32790;SDS011;19143;59.322;14.502;2023-06-14T09:00:24;10.88;;;4.28;;
32790;SDS011;19143;59.322;14.502;2023-06-14T09:02:50;4.72;;;4.20;;
32790;SDS011;19143;59.322;14.502;2023-06-14T09:05:21;6.97;;;4.15;;
32790;SDS011;19143;59.322;14.502;2023-06-14T09:07:49;4.55;;;4.25;;
32790;SDS011;19143;59.322;14.502;2023-06-14T09:10:17;5.82;;;3.75;;
32790;SDS011;19143;59.322;14.502;2023-06-14T09:12:44;7.00;;;4.15;;
32790;SDS011;19143;59.322;14.502;2023-06-14T09:15:11;10.13;;;3.88;;
32790;SDS011;19143;59.322;14.502;2023-06-14T09:17:39;4.88;;;4.40;;
32790;SDS011;19143;59.322;14.502;2023-06-14T09:20:06;4.53;;;4.13;;
32790;SDS011;19143;59.322;14.502;2023-06-14T09:22:34;5.78;;;4.32;;
32790;SDS011;19143;59.322;14.502;2023-06-14T09:25:02;8.02;;;3.75;;
32790;SDS011;19143;59.322;14.502;2023-06-14T09:27:30;8.55;;;4.15;;
32790;SDS011;19143;59.322;14.502;2023-06-14T09:29:56;5.57;;;3.90;;
32790;SDS011;19143;59.322;14.502;2023-06-14T09:32:23;4.45;;;3.50;;
32790;SDS011;19143;59.322;14.502;2023-06-14T09:34:49;4.07;;;3.50;;
32790;SDS011;19143;59.322;14.502;2023-06-14T09:37:28;4.85;;;4.43;;
32790;SDS011;19143;59.322;14.502;2023-06-14T09:39:55;4.72;;;3.60;;
32790;SDS011;19143;59.322;14.502;2023-06-14T09:42:23;4.75;;;3.78;;
32790;SDS011;19143;59.322;14.502;2023-06-14T09:44:51;7.13;;;3.70;;
32790;SDS011;19143;59.322;14.502;2023-06-14T09:47:18;7.30;;;4.22;;
32790;SDS011;19143;59.322;14.502;2023-06-14T09:49:45;5.68;;;3.70;;
32790;SDS011;19143;59.322;14.502;2023-06-14T09:52:13;5.07;;;3.60;;
32790;SDS011;19143;59.322;14.502;2023-06-14T09:54:40;11.45;;;3.83;;
32790;SDS011;19143;59.322;14.502;2023-06-14T09:57:08;4.82;;;4.28;;
32790;SDS011;19143;59.322;14.502;2023-06-14T09:59:36;4.10;;;3.90;;
32790;SDS011;19143;59.322;14.502;2023-06-14T10:02:07;5.10;;;3.92;;
32790;SDS011;19143;59.322;14.502;2023-06-14T10:04:37;4.13;;;3.92;;
32790;SDS011;19143;59.322;14.502;2023-06-14T10:07:06;7.75;;;3.90;;
32790;SDS011;19143;59.322;14.502;2023-06-14T10:09:33;3.85;;;3.65;;
32790;SDS011;19143;59.322;14.502;2023-06-14T10:12:00;7.95;;;4.22;;
32790;SDS011;19143;59.322;14.502;2023-06-14T10:14:27;5.60;;;4.20;;
32790;SDS011;19143;59.322;14.502;2023-06-14T10:16:56;5.78;;;3.83;;
32790;SDS011;19143;59.322;14.502;2023-06-14T10:19:27;7.95;;;4.32;;
32790;SDS011;19143;59.322;14.502;2023-06-14T10:22:00;7.82;;;4.25;;
32790;SDS011;19143;59.322;14.502;2023-06-14T10:24:29;4.95;;;4.50;;
32790;SDS011;19143;59.322;14.502;2023-06-14T10:26:57;3.97;;;3.75;;
32790;SDS011;19143;59.322;14.502;2023-06-14T10:29:24;6.22;;;4.28;;
32790;SDS011;19143;59.322;14.502;2023-06-14T10:31:51;8.52;;;4.50;;
32790;SDS011;19143;59.322;14.502;2023-06-14T10:34:24;4.25;;;4.05;;
32790;SDS011;19143;59.322;14.502;2023-06-14T10:37:00;4.30;;;4.05;;
32790;SDS011;19143;59.322;14.502;2023-06-14T10:39:27;6.95;;;4.00;;
32790;SDS011;19143;59.322;14.502;2023-06-14T10:41:54;4.60;;;4.00;;
32790;SDS011;19143;59.322;14.502;2023-06-14T10:44:40;10.07;;;3.95;;
32790;SDS011;19143;59.322;14.502;2023-06-14T10:47:07;4.30;;;4.00;;
32790;SDS011;19143;59.322;14.502;2023-06-14T10:49:40;6.53;;;4.15;;
32790;SDS011;19143;59.322;14.502;2023-06-14T10:52:10;8.10;;;4.45;;
32790;SDS011;19143;59.322;14.502;2023-06-14T10:54:55;4.32;;;4.00;;
32790;SDS011;19143;59.322;14.502;2023-06-14T10:57:26;5.80;;;4.35;;
32790;SDS011;19143;59.322;14.502;2023-06-14T10:59:58;5.03;;;4.57;;
32790;SDS011;19143;59.322;14.502;2023-06-14T11:05:13;4.10;;;3.90;;
32790;SDS011;19143;59.322;14.502;2023-06-14T11:07:43;8.93;;;3.70;;
32790;SDS011;19143;59.322;14.502;2023-06-14T11:10:16;9.65;;;4.28;;
32790;SDS011;19143;59.322;14.502;2023-06-14T11:12:48;5.10;;;4.35;;
32790;SDS011;19143;59.322;14.502;2023-06-14T11:15:16;7.55;;;3.88;;
32790;SDS011;19143;59.322;14.502;2023-06-14T11:17:49;4.40;;;4.10;;
32790;SDS011;19143;59.322;14.502;2023-06-14T11:20:18;24.02;;;4.93;;
32790;SDS011;19143;59.322;14.502;2023-06-14T11:22:45;6.28;;;4.55;;
32790;SDS011;19143;59.322;14.502;2023-06-14T11:25:12;12.70;;;4.20;;
32790;SDS011;19143;59.322;14.502;2023-06-14T11:27:39;4.25;;;3.88;;
32790;SDS011;19143;59.322;14.502;2023-06-14T11:30:07;6.63;;;4.05;;
32790;SDS011;19143;59.322;14.502;2023-06-14T11:32:34;5.13;;;4.10;;
32790;SDS011;19143;59.322;14.502;2023-06-14T11:35:01;4.45;;;4.15;;
32790;SDS011;19143;59.322;14.502;2023-06-14T11:37:29;10.48;;;4.40;;
32790;SDS011;19143;59.322;14.502;2023-06-14T11:39:56;7.13;;;4.65;;
32790;SDS011;19143;59.322;14.502;2023-06-14T11:42:24;4.72;;;4.30;;
32790;SDS011;19143;59.322;14.502;2023-06-14T11:44:50;4.40;;;4.00;;
32790;SDS011;19143;59.322;14.502;2023-06-14T11:47:17;4.43;;;4.15;;
32790;SDS011;19143;59.322;14.502;2023-06-14T11:49:43;4.50;;;4.10;;
32790;SDS011;19143;59.322;14.502;2023-06-14T11:52:10;4.63;;;4.25;;
32790;SDS011;19143;59.322;14.502;2023-06-14T11:54:40;5.90;;;4.30;;
32790;SDS011;19143;59.322;14.502;2023-06-14T11:57:09;10.43;;;4.22;;
32790;SDS011;19143;59.322;14.502;2023-06-14T11:59:38;4.47;;;4.07;;
32790;SDS011;19143;59.322;14.502;2023-06-14T12:02:13;4.72;;;4.32;;
32790;SDS011;19143;59.322;14.502;2023-06-14T12:04:40;6.53;;;4.22;;
32790;SDS011;19143;59.322;14.502;2023-06-14T12:07:11;7.55;;;4.30;;
32790;SDS011;19143;59.322;14.502;2023-06-14T12:09:41;4.32;;;4.03;;
32790;SDS011;19143;59.322;14.502;2023-06-14T12:12:09;4.80;;;4.40;;
32790;SDS011;19143;59.322;14.502;2023-06-14T12:14:36;8.00;;;4.10;;
32790;SDS011;19143;59.322;14.502;2023-06-14T12:17:05;4.50;;;4.18;;
32790;SDS011;19143;59.322;14.502;2023-06-14T12:19:41;9.50;;;4.30;;
32790;SDS011;19143;59.322;14.502;2023-06-14T12:22:09;6.97;;;4.15;;
32790;SDS011;19143;59.322;14.502;2023-06-14T12:24:36;8.90;;;3.97;;
32790;SDS011;19143;59.322;14.502;2023-06-14T12:27:04;7.40;;;4.47;;
32790;SDS011;19143;59.322;14.502;2023-06-14T12:29:31;7.68;;;4.00;;
32790;SDS011;19143;59.322;14.502;2023-06-14T12:31:58;4.28;;;4.00;;
32790;SDS011;19143;59.322;14.502;2023-06-14T12:34:25;4.60;;;4.30;;
32790;SDS011;19143;59.322;14.502;2023-06-14T12:36:52;7.18;;;4.03;;
32790;SDS011;19143;59.322;14.502;2023-06-14T12:39:19;5.75;;;4.38;;
32790;SDS011;19143;59.322;14.502;2023-06-14T12:41:46;4.30;;;3.85;;
32790;SDS011;19143;59.322;14.502;2023-06-14T12:44:15;4.13;;;3.92;;
32790;SDS011;19143;59.322;14.502;2023-06-14T12:46:41;4.68;;;4.10;;
32790;SDS011;19143;59.322;14.502;2023-06-14T12:49:08;5.75;;;4.20;;
32790;SDS011;19143;59.322;14.502;2023-06-14T12:51:35;4.90;;;4.40;;
32790;SDS011;19143;59.322;14.502;2023-06-14T12:54:02;5.63;;;4.57;;
32790;SDS011;19143;59.322;14.502;2023-06-14T12:56:29;4.85;;;4.07;;
32790;SDS011;19143;59.322;14.502;2023-06-14T12:58:59;9.05;;;5.00;;
32790;SDS011;19143;59.322;14.502;2023-06-14T13:01:27;6.55;;;5.10;;
32790;SDS011;19143;59.322;14.502;2023-06-14T13:03:54;5.50;;;5.00;;
32790;SDS011;19143;59.322;14.502;2023-06-14T13:06:21;7.88;;;4.90;;
32790;SDS011;19143;59.322;14.502;2023-06-14T13:08:48;10.95;;;5.03;;
32790;SDS011;19143;59.322;14.502;2023-06-14T13:11:15;6.93;;;4.88;;
32790;SDS011;19143;59.322;14.502;2023-06-14T13:13:42;9.63;;;4.95;;
32790;SDS011;19143;59.322;14.502;2023-06-14T13:16:08;8.75;;;5.43;;
32790;SDS011;19143;59.322;14.502;2023-06-14T13:18:37;9.32;;;4.80;;
32790;SDS011;19143;59.322;14.502;2023-06-14T13:21:04;10.45;;;4.78;;
32790;SDS011;19143;59.322;14.502;2023-06-14T13:23:30;7.18;;;5.30;;
32790;SDS011;19143;59.322;14.502;2023-06-14T13:25:57;7.13;;;5.03;;
32790;SDS011;19143;59.322;14.502;2023-06-14T13:28:23;7.00;;;5.07;;
32790;SDS011;19143;59.322;14.502;2023-06-14T13:30:50;19.40;;;5.50;;
32790;SDS011;19143;59.322;14.502;2023-06-14T13:33:16;7.80;;;4.82;;
32790;SDS011;19143;59.322;14.502;2023-06-14T13:35:45;5.47;;;4.75;;
32790;SDS011;19143;59.322;14.502;2023-06-14T13:38:11;10.80;;;4.85;;
32790;SDS011;19143;59.322;14.502;2023-06-14T13:40:39;8.32;;;4.50;;
32790;SDS011;19143;59.322;14.502;2023-06-14T13:43:06;5.15;;;4.30;;
32790;SDS011;19143;59.322;14.502;2023-06-14T13:45:33;5.10;;;4.60;;
32790;SDS011;19143;59.322;14.502;2023-06-14T13:48:00;4.75;;;4.50;;
32790;SDS011;19143;59.322;14.502;2023-06-14T13:50:27;6.43;;;4.47;;
32790;SDS011;19143;59.322;14.502;2023-06-14T13:52:55;5.95;;;4.30;;
32790;SDS011;19143;59.322;14.502;2023-06-14T13:55:22;11.40;;;5.22;;
32790;SDS011;19143;59.322;14.502;2023-06-14T13:57:48;6.82;;;4.88;;
32790;SDS011;19143;59.322;14.502;2023-06-14T14:00:15;8.70;;;4.70;;
32790;SDS011;19143;59.322;14.502;2023-06-14T14:02:42;4.78;;;4.38;;
32790;SDS011;19143;59.322;14.502;2023-06-14T14:05:09;4.75;;;4.45;;
32790;SDS011;19143;59.322;14.502;2023-06-14T14:07:35;9.95;;;4.68;;
32790;SDS011;19143;59.322;14.502;2023-06-14T14:10:05;5.22;;;4.60;;
32790;SDS011;19143;59.322;14.502;2023-06-14T14:12:32;4.50;;;4.20;;
32790;SDS011;19143;59.322;14.502;2023-06-14T14:14:59;4.72;;;4.40;;
32790;SDS011;19143;59.322;14.502;2023-06-14T14:17:26;8.18;;;4.43;;
32790;SDS011;19143;59.322;14.502;2023-06-14T14:19:53;7.20;;;4.30;;
32790;SDS011;19143;59.322;14.502;2023-06-14T14:22:21;10.40;;;4.70;;
32790;SDS011;19143;59.322;14.502;2023-06-14T14:24:47;4.97;;;4.57;;
32790;SDS011;19143;59.322;14.502;2023-06-14T14:27:16;5.65;;;4.47;;
32790;SDS011;19143;59.322;14.502;2023-06-14T14:29:42;4.68;;;4.38;;
32790;SDS011;19143;59.322;14.502;2023-06-14T14:32:09;5.80;;;4.93;;
32790;SDS011;19143;59.322;14.502;2023-06-14T14:34:39;5.32;;;4.82;;